sensor_id;sensor_type;location;lat;lon;timestamp;P1;durP1;ratioP1;P2;durP2;ratioP2
68864;SDS011;55898;52.196;4.420;2022-09-09T00:01:00;2.73;;;2.73;;
68864;SDS011;55898;52.196;4.420;2022-09-09T00:04:23;2.57;;;2.57;;
68864;SDS011;55898;52.196;4.420;2022-09-09T00:06:30;2.70;;;2.70;;
68864;SDS011;55898;52.196;4.420;2022-09-09T00:09:11;2.61;;;2.61;;
68864;SDS011;55898;52.196;4.420;2022-09-09T00:11:46;2.52;;;2.52;;
68864;SDS011;55898;52.196;4.420;2022-09-09T00:17:16;2.90;;;2.90;;
68864;SDS011;55898;52.196;4.420;2022-09-09T00:19:59;3.02;;;3.02;;
68864;SDS011;55898;52.196;4.420;2022-09-09T00:22:36;3.17;;;3.17;;
68864;SDS011;55898;52.196;4.420;2022-09-09T00:25:16;3.11;;;3.11;;
68864;SDS011;55898;52.196;4.420;2022-09-09T00:27:51;2.94;;;2.94;;
68864;SDS011;55898;52.196;4.420;2022-09-09T00:30:18;3.16;;;3.16;;
68864;SDS011;55898;52.196;4.420;2022-09-09T00:32:48;3.29;;;3.29;;
68864;SDS011;55898;52.196;4.420;2022-09-09T00:38:10;3.43;;;3.43;;
68864;SDS011;55898;52.196;4.420;2022-09-09T00:40:41;3.74;;;3.74;;
68864;SDS011;55898;52.196;4.420;2022-09-09T00:43:24;3.64;;;3.64;;
68864;SDS011;55898;52.196;4.420;2022-09-09T00:54:27;4.04;;;4.04;;
68864;SDS011;55898;52.196;4.420;2022-09-09T00:57:05;4.51;;;4.51;;
68864;SDS011;55898;52.196;4.420;2022-09-09T01:02:39;4.93;;;4.93;;
68864;SDS011;55898;52.196;4.420;2022-09-09T01:05:13;4.88;;;4.88;;
68864;SDS011;55898;52.196;4.420;2022-09-09T01:07:52;5.24;;;5.24;;
68864;SDS011;55898;52.196;4.420;2022-09-09T01:13:21;5.47;;;5.47;;
68864;SDS011;55898;52.196;4.420;2022-09-09T01:15:50;6.11;;;6.11;;
68864;SDS011;55898;52.196;4.420;2022-09-09T01:18:19;6.79;;;6.79;;
68864;SDS011;55898;52.196;4.420;2022-09-09T01:23:35;6.73;;;6.73;;
68864;SDS011;55898;52.196;4.420;2022-09-09T01:26:42;7.93;;;7.93;;
68864;SDS011;55898;52.196;4.420;2022-09-09T01:29:12;8.80;;;8.80;;
68864;SDS011;55898;52.196;4.420;2022-09-09T01:31:51;8.47;;;8.47;;
68864;SDS011;55898;52.196;4.420;2022-09-09T01:34:20;8.60;;;8.60;;
68864;SDS011;55898;52.196;4.420;2022-09-09T01:36:58;9.17;;;9.17;;
68864;SDS011;55898;52.196;4.420;2022-09-09T01:39:31;8.96;;;8.96;;
68864;SDS011;55898;52.196;4.420;2022-09-09T01:41:59;8.41;;;8.41;;
68864;SDS011;55898;52.196;4.420;2022-09-09T01:44:27;7.90;;;7.90;;
68864;SDS011;55898;52.196;4.420;2022-09-09T01:46:55;7.20;;;7.20;;
68864;SDS011;55898;52.196;4.420;2022-09-09T01:49:21;6.57;;;6.57;;
68864;SDS011;55898;52.196;4.420;2022-09-09T01:51:49;6.57;;;6.57;;
68864;SDS011;55898;52.196;4.420;2022-09-09T01:54:18;6.20;;;6.20;;
68864;SDS011;55898;52.196;4.420;2022-09-09T02:02:43;6.09;;;6.09;;
68864;SDS011;55898;52.196;4.420;2022-09-09T02:08:45;5.94;;;5.94;;
68864;SDS011;55898;52.196;4.420;2022-09-09T02:11:18;6.35;;;6.35;;
68864;SDS011;55898;52.196;4.420;2022-09-09T02:13:47;5.94;;;5.94;;
68864;SDS011;55898;52.196;4.420;2022-09-09T02:16:23;6.48;;;6.47;;
68864;SDS011;55898;52.196;4.420;2022-09-09T02:19:09;6.20;;;6.13;;
68864;SDS011;55898;52.196;4.420;2022-09-09T02:21:52;6.35;;;6.32;;
68864;SDS011;55898;52.196;4.420;2022-09-09T02:24:21;6.17;;;6.17;;
68864;SDS011;55898;52.196;4.420;2022-09-09T02:26:48;5.97;;;5.97;;
68864;SDS011;55898;52.196;4.420;2022-09-09T02:29:28;6.12;;;6.12;;
68864;SDS011;55898;52.196;4.420;2022-09-09T02:31:59;5.80;;;5.80;;
68864;SDS011;55898;52.196;4.420;2022-09-09T02:34:30;5.94;;;5.94;;
68864;SDS011;55898;52.196;4.420;2022-09-09T02:37:01;6.19;;;6.19;;
68864;SDS011;55898;52.196;4.420;2022-09-09T02:39:31;6.20;;;6.11;;
68864;SDS011;55898;52.196;4.420;2022-09-09T02:41:56;5.81;;;5.81;;
68864;SDS011;55898;52.196;4.420;2022-09-09T02:44:22;5.79;;;5.79;;
68864;SDS011;55898;52.196;4.420;2022-09-09T02:49:18;5.87;;;5.87;;
68864;SDS011;55898;52.196;4.420;2022-09-09T02:52:04;6.29;;;6.29;;
68864;SDS011;55898;52.196;4.420;2022-09-09T02:54:35;6.00;;;5.99;;
68864;SDS011;55898;52.196;4.420;2022-09-09T02:59:29;5.40;;;5.40;;
68864;SDS011;55898;52.196;4.420;2022-09-09T03:01:56;5.48;;;5.48;;
68864;SDS011;55898;52.196;4.420;2022-09-09T03:04:21;5.72;;;5.72;;
68864;SDS011;55898;52.196;4.420;2022-09-09T03:06:47;5.70;;;5.70;;
68864;SDS011;55898;52.196;4.420;2022-09-09T03:09:14;5.50;;;5.50;;
68864;SDS011;55898;52.196;4.420;2022-09-09T03:11:39;5.06;;;5.02;;
68864;SDS011;55898;52.196;4.420;2022-09-09T03:14:05;4.55;;;4.55;;
68864;SDS011;55898;52.196;4.420;2022-09-09T03:16:30;4.45;;;4.45;;
68864;SDS011;55898;52.196;4.420;2022-09-09T03:18:56;4.38;;;4.38;;
68864;SDS011;55898;52.196;4.420;2022-09-09T03:21:22;3.67;;;3.67;;
68864;SDS011;55898;52.196;4.420;2022-09-09T03:23:47;3.77;;;3.77;;
68864;SDS011;55898;52.196;4.420;2022-09-09T03:26:13;3.63;;;3.63;;
68864;SDS011;55898;52.196;4.420;2022-09-09T03:28:40;3.03;;;3.03;;
68864;SDS011;55898;52.196;4.420;2022-09-09T03:31:06;2.70;;;2.70;;
68864;SDS011;55898;52.196;4.420;2022-09-09T03:33:35;3.03;;;3.03;;
68864;SDS011;55898;52.196;4.420;2022-09-09T03:36:04;2.75;;;2.75;;
68864;SDS011;55898;52.196;4.420;2022-09-09T03:38:30;2.80;;;2.80;;
68864;SDS011;55898;52.196;4.420;2022-09-09T03:40:57;2.72;;;2.72;;
68864;SDS011;55898;52.196;4.420;2022-09-09T03:43:23;2.59;;;2.59;;
68864;SDS011;55898;52.196;4.420;2022-09-09T03:45:51;2.69;;;2.69;;
68864;SDS011;55898;52.196;4.420;2022-09-09T03:48:18;2.61;;;2.61;;
68864;SDS011;55898;52.196;4.420;2022-09-09T03:50:47;2.29;;;2.29;;
68864;SDS011;55898;52.196;4.420;2022-09-09T03:53:15;2.56;;;2.56;;
68864;SDS011;55898;52.196;4.420;2022-09-09T03:55:44;2.60;;;2.60;;
68864;SDS011;55898;52.196;4.420;2022-09-09T03:58:15;2.35;;;2.35;;
68864;SDS011;55898;52.196;4.420;2022-09-09T04:00:43;2.40;;;2.40;;
68864;SDS011;55898;52.196;4.420;2022-09-09T04:03:17;2.24;;;2.24;;
68864;SDS011;55898;52.196;4.420;2022-09-09T04:05:43;2.40;;;2.40;;
68864;SDS011;55898;52.196;4.420;2022-09-09T04:08:08;2.26;;;2.26;;
68864;SDS011;55898;52.196;4.420;2022-09-09T04:10:34;2.23;;;2.23;;
68864;SDS011;55898;52.196;4.420;2022-09-09T04:13:04;2.41;;;2.41;;
68864;SDS011;55898;52.196;4.420;2022-09-09T04:15:30;2.32;;;2.32;;
68864;SDS011;55898;52.196;4.420;2022-09-09T04:17:56;2.22;;;2.22;;
68864;SDS011;55898;52.196;4.420;2022-09-09T04:20:21;2.09;;;2.09;;
68864;SDS011;55898;52.196;4.420;2022-09-09T04:22:47;2.34;;;2.34;;
68864;SDS011;55898;52.196;4.420;2022-09-09T04:25:13;2.20;;;2.20;;
68864;SDS011;55898;52.196;4.420;2022-09-09T04:27:39;2.00;;;2.00;;
68864;SDS011;55898;52.196;4.420;2022-09-09T04:30:05;2.22;;;2.22;;
68864;SDS011;55898;52.196;4.420;2022-09-09T04:32:34;2.26;;;2.25;;
68864;SDS011;55898;52.196;4.420;2022-09-09T04:35:01;2.23;;;2.23;;
68864;SDS011;55898;52.196;4.420;2022-09-09T04:37:27;2.24;;;2.24;;
68864;SDS011;55898;52.196;4.420;2022-09-09T04:39:52;2.25;;;2.25;;
68864;SDS011;55898;52.196;4.420;2022-09-09T04:42:17;2.73;;;2.72;;
68864;SDS011;55898;52.196;4.420;2022-09-09T04:44:44;2.38;;;2.37;;
68864;SDS011;55898;52.196;4.420;2022-09-09T04:47:09;2.28;;;2.28;;
68864;SDS011;55898;52.196;4.420;2022-09-09T04:49:35;2.51;;;2.51;;
68864;SDS011;55898;52.196;4.420;2022-09-09T04:52:02;2.43;;;2.43;;
68864;SDS011;55898;52.196;4.420;2022-09-09T04:54:28;2.54;;;2.54;;
68864;SDS011;55898;52.196;4.420;2022-09-09T04:56:54;2.52;;;2.52;;
68864;SDS011;55898;52.196;4.420;2022-09-09T04:59:20;2.63;;;2.63;;
68864;SDS011;55898;52.196;4.420;2022-09-09T05:01:47;2.68;;;2.68;;
68864;SDS011;55898;52.196;4.420;2022-09-09T05:04:13;2.67;;;2.67;;
68864;SDS011;55898;52.196;4.420;2022-09-09T05:06:40;2.76;;;2.76;;
68864;SDS011;55898;52.196;4.420;2022-09-09T05:09:07;2.51;;;2.50;;
68864;SDS011;55898;52.196;4.420;2022-09-09T05:11:33;2.63;;;2.63;;
68864;SDS011;55898;52.196;4.420;2022-09-09T05:14:02;2.39;;;2.39;;
68864;SDS011;55898;52.196;4.420;2022-09-09T05:16:28;2.42;;;2.42;;
68864;SDS011;55898;52.196;4.420;2022-09-09T05:18:55;2.44;;;2.44;;
68864;SDS011;55898;52.196;4.420;2022-09-09T05:21:21;2.33;;;2.33;;
68864;SDS011;55898;52.196;4.420;2022-09-09T05:23:49;2.57;;;2.57;;
68864;SDS011;55898;52.196;4.420;2022-09-09T05:26:17;2.36;;;2.36;;
68864;SDS011;55898;52.196;4.420;2022-09-09T05:28:45;2.40;;;2.39;;
68864;SDS011;55898;52.196;4.420;2022-09-09T05:31:11;2.51;;;2.48;;
68864;SDS011;55898;52.196;4.420;2022-09-09T05:33:40;2.59;;;2.56;;
68864;SDS011;55898;52.196;4.420;2022-09-09T05:36:08;2.26;;;2.26;;
68864;SDS011;55898;52.196;4.420;2022-09-09T05:38:38;2.40;;;2.39;;
68864;SDS011;55898;52.196;4.420;2022-09-09T05:41:05;2.55;;;2.54;;
68864;SDS011;55898;52.196;4.420;2022-09-09T05:43:32;2.43;;;2.43;;
68864;SDS011;55898;52.196;4.420;2022-09-09T05:46:07;2.34;;;2.33;;
68864;SDS011;55898;52.196;4.420;2022-09-09T05:48:39;2.44;;;2.44;;
68864;SDS011;55898;52.196;4.420;2022-09-09T05:51:08;2.18;;;2.18;;
68864;SDS011;55898;52.196;4.420;2022-09-09T05:53:37;2.21;;;2.18;;
68864;SDS011;55898;52.196;4.420;2022-09-09T05:56:04;2.37;;;2.36;;
68864;SDS011;55898;52.196;4.420;2022-09-09T05:58:35;2.35;;;2.34;;
68864;SDS011;55898;52.196;4.420;2022-09-09T06:01:02;2.18;;;2.16;;
68864;SDS011;55898;52.196;4.420;2022-09-09T06:03:29;2.34;;;2.32;;
68864;SDS011;55898;52.196;4.420;2022-09-09T06:05:58;2.30;;;2.28;;
68864;SDS011;55898;52.196;4.420;2022-09-09T06:08:26;2.25;;;2.25;;
68864;SDS011;55898;52.196;4.420;2022-09-09T06:10:51;2.56;;;2.56;;
68864;SDS011;55898;52.196;4.420;2022-09-09T06:13:17;2.30;;;2.30;;
68864;SDS011;55898;52.196;4.420;2022-09-09T06:15:50;2.27;;;2.26;;
68864;SDS011;55898;52.196;4.420;2022-09-09T06:18:17;2.35;;;2.34;;
68864;SDS011;55898;52.196;4.420;2022-09-09T06:20:53;2.11;;;2.11;;
68864;SDS011;55898;52.196;4.420;2022-09-09T06:23:31;2.60;;;2.56;;
68864;SDS011;55898;52.196;4.420;2022-09-09T06:28:36;2.29;;;2.22;;
68864;SDS011;55898;52.196;4.420;2022-09-09T06:31:03;2.90;;;2.75;;
68864;SDS011;55898;52.196;4.420;2022-09-09T06:33:32;2.52;;;2.43;;
68864;SDS011;55898;52.196;4.420;2022-09-09T06:36:00;2.71;;;2.60;;
68864;SDS011;55898;52.196;4.420;2022-09-09T06:38:28;3.00;;;2.90;;
68864;SDS011;55898;52.196;4.420;2022-09-09T06:40:55;2.72;;;2.70;;
68864;SDS011;55898;52.196;4.420;2022-09-09T06:43:24;2.74;;;2.68;;
68864;SDS011;55898;52.196;4.420;2022-09-09T06:48:23;3.16;;;3.16;;
68864;SDS011;55898;52.196;4.420;2022-09-09T06:50:51;3.34;;;3.34;;
68864;SDS011;55898;52.196;4.420;2022-09-09T06:53:39;3.20;;;3.20;;
68864;SDS011;55898;52.196;4.420;2022-09-09T06:58:34;3.53;;;3.53;;
68864;SDS011;55898;52.196;4.420;2022-09-09T07:01:11;3.70;;;3.70;;
68864;SDS011;55898;52.196;4.420;2022-09-09T07:03:41;3.71;;;3.71;;
68864;SDS011;55898;52.196;4.420;2022-09-09T07:06:08;3.56;;;3.56;;
68864;SDS011;55898;52.196;4.420;2022-09-09T07:08:40;3.72;;;3.72;;
68864;SDS011;55898;52.196;4.420;2022-09-09T07:11:07;3.60;;;3.60;;
68864;SDS011;55898;52.196;4.420;2022-09-09T07:13:33;3.83;;;3.83;;
68864;SDS011;55898;52.196;4.420;2022-09-09T07:16:13;3.96;;;3.96;;
68864;SDS011;55898;52.196;4.420;2022-09-09T07:18:41;3.85;;;3.85;;
68864;SDS011;55898;52.196;4.420;2022-09-09T07:21:09;4.07;;;4.07;;
68864;SDS011;55898;52.196;4.420;2022-09-09T07:23:37;3.78;;;3.78;;
68864;SDS011;55898;52.196;4.420;2022-09-09T07:26:10;3.45;;;3.45;;
68864;SDS011;55898;52.196;4.420;2022-09-09T07:28:40;3.51;;;3.51;;
68864;SDS011;55898;52.196;4.420;2022-09-09T07:31:07;3.55;;;3.55;;
68864;SDS011;55898;52.196;4.420;2022-09-09T07:33:40;3.52;;;3.52;;
68864;SDS011;55898;52.196;4.420;2022-09-09T07:36:07;3.64;;;3.64;;
68864;SDS011;55898;52.196;4.420;2022-09-09T07:38:38;3.61;;;3.61;;
68864;SDS011;55898;52.196;4.420;2022-09-09T07:41:21;3.77;;;3.77;;
68864;SDS011;55898;52.196;4.420;2022-09-09T07:43:52;3.91;;;3.91;;
68864;SDS011;55898;52.196;4.420;2022-09-09T07:46:19;3.67;;;3.67;;
68864;SDS011;55898;52.196;4.420;2022-09-09T07:48:47;3.61;;;3.61;;
68864;SDS011;55898;52.196;4.420;2022-09-09T07:51:20;3.67;;;3.67;;
68864;SDS011;55898;52.196;4.420;2022-09-09T07:53:51;3.58;;;3.58;;
68864;SDS011;55898;52.196;4.420;2022-09-09T07:56:23;3.77;;;3.77;;
68864;SDS011;55898;52.196;4.420;2022-09-09T07:58:50;3.85;;;3.85;;
68864;SDS011;55898;52.196;4.420;2022-09-09T08:03:55;3.79;;;3.79;;
68864;SDS011;55898;52.196;4.420;2022-09-09T08:06:49;3.71;;;3.71;;
68864;SDS011;55898;52.196;4.420;2022-09-09T08:09:18;3.85;;;3.85;;
68864;SDS011;55898;52.196;4.420;2022-09-09T08:11:44;3.87;;;3.87;;
68864;SDS011;55898;52.196;4.420;2022-09-09T08:14:11;3.41;;;3.41;;
68864;SDS011;55898;52.196;4.420;2022-09-09T08:16:41;3.57;;;3.57;;
68864;SDS011;55898;52.196;4.420;2022-09-09T08:19:09;3.56;;;3.56;;
68864;SDS011;55898;52.196;4.420;2022-09-09T08:21:36;3.39;;;3.39;;
68864;SDS011;55898;52.196;4.420;2022-09-09T08:24:04;3.43;;;3.43;;
68864;SDS011;55898;52.196;4.420;2022-09-09T08:26:31;3.39;;;3.39;;
68864;SDS011;55898;52.196;4.420;2022-09-09T08:28:59;3.44;;;3.44;;
68864;SDS011;55898;52.196;4.420;2022-09-09T08:31:31;3.34;;;3.34;;
68864;SDS011;55898;52.196;4.420;2022-09-09T08:34:00;3.34;;;3.34;;
68864;SDS011;55898;52.196;4.420;2022-09-09T08:36:28;3.48;;;3.48;;
68864;SDS011;55898;52.196;4.420;2022-09-09T08:38:58;3.17;;;3.17;;
68864;SDS011;55898;52.196;4.420;2022-09-09T08:50:21;2.89;;;2.89;;
68864;SDS011;55898;52.196;4.420;2022-09-09T08:58:25;3.02;;;3.02;;
68864;SDS011;55898;52.196;4.420;2022-09-09T09:03:55;2.90;;;2.90;;
68864;SDS011;55898;52.196;4.420;2022-09-09T09:14:20;2.93;;;2.93;;
68864;SDS011;55898;52.196;4.420;2022-09-09T09:17:04;2.63;;;2.63;;
68864;SDS011;55898;52.196;4.420;2022-09-09T09:19:38;2.78;;;2.78;;
68864;SDS011;55898;52.196;4.420;2022-09-09T09:22:10;2.62;;;2.62;;
68864;SDS011;55898;52.196;4.420;2022-09-09T09:24:50;2.88;;;2.88;;
68864;SDS011;55898;52.196;4.420;2022-09-09T09:27:24;3.05;;;3.05;;
68864;SDS011;55898;52.196;4.420;2022-09-09T09:29:56;3.03;;;3.03;;
68864;SDS011;55898;52.196;4.420;2022-09-09T09:32:25;3.11;;;3.11;;
68864;SDS011;55898;52.196;4.420;2022-09-09T09:34:56;2.85;;;2.85;;
68864;SDS011;55898;52.196;4.420;2022-09-09T09:37:29;2.92;;;2.92;;
68864;SDS011;55898;52.196;4.420;2022-09-09T09:40:16;2.82;;;2.82;;
68864;SDS011;55898;52.196;4.420;2022-09-09T09:42:48;3.04;;;3.04;;
68864;SDS011;55898;52.196;4.420;2022-09-09T09:45:20;2.98;;;2.98;;
68864;SDS011;55898;52.196;4.420;2022-09-09T09:48:03;3.01;;;3.01;;
68864;SDS011;55898;52.196;4.420;2022-09-09T09:50:31;3.17;;;3.17;;
68864;SDS011;55898;52.196;4.420;2022-09-09T09:53:04;3.01;;;3.01;;
68864;SDS011;55898;52.196;4.420;2022-09-09T09:55:46;2.87;;;2.87;;
68864;SDS011;55898;52.196;4.420;2022-09-09T09:58:19;2.92;;;2.92;;
68864;SDS011;55898;52.196;4.420;2022-09-09T10:00:51;2.81;;;2.81;;
68864;SDS011;55898;52.196;4.420;2022-09-09T10:03:21;2.76;;;2.76;;
68864;SDS011;55898;52.196;4.420;2022-09-09T10:05:49;2.74;;;2.74;;
68864;SDS011;55898;52.196;4.420;2022-09-09T10:08:16;2.80;;;2.80;;
68864;SDS011;55898;52.196;4.420;2022-09-09T10:11:01;2.81;;;2.81;;
68864;SDS011;55898;52.196;4.420;2022-09-09T10:13:47;2.87;;;2.87;;
68864;SDS011;55898;52.196;4.420;2022-09-09T10:19:32;3.20;;;3.20;;
68864;SDS011;55898;52.196;4.420;2022-09-09T10:27:30;3.25;;;3.25;;
68864;SDS011;55898;52.196;4.420;2022-09-09T10:30:26;3.27;;;3.27;;
68864;SDS011;55898;52.196;4.420;2022-09-09T10:36:21;3.33;;;3.33;;
68864;SDS011;55898;52.196;4.420;2022-09-09T10:38:53;3.60;;;3.60;;
68864;SDS011;55898;52.196;4.420;2022-09-09T10:44:12;3.75;;;3.75;;
68864;SDS011;55898;52.196;4.420;2022-09-09T10:47:25;3.27;;;3.27;;
68864;SDS011;55898;52.196;4.420;2022-09-09T10:53:08;3.14;;;3.14;;
68864;SDS011;55898;52.196;4.420;2022-09-09T10:56:15;3.10;;;3.10;;
68864;SDS011;55898;52.196;4.420;2022-09-09T10:58:47;2.97;;;2.97;;
68864;SDS011;55898;52.196;4.420;2022-09-09T11:01:23;2.88;;;2.88;;
68864;SDS011;55898;52.196;4.420;2022-09-09T11:03:56;2.95;;;2.95;;
68864;SDS011;55898;52.196;4.420;2022-09-09T11:06:37;2.85;;;2.85;;
68864;SDS011;55898;52.196;4.420;2022-09-09T11:09:13;2.88;;;2.88;;
68864;SDS011;55898;52.196;4.420;2022-09-09T11:11:49;2.75;;;2.75;;
68864;SDS011;55898;52.196;4.420;2022-09-09T11:14:29;2.87;;;2.87;;
68864;SDS011;55898;52.196;4.420;2022-09-09T11:17:03;2.81;;;2.81;;
68864;SDS011;55898;52.196;4.420;2022-09-09T11:19:54;2.91;;;2.91;;
68864;SDS011;55898;52.196;4.420;2022-09-09T11:22:31;2.97;;;2.97;;
68864;SDS011;55898;52.196;4.420;2022-09-09T11:25:14;3.27;;;3.27;;
68864;SDS011;55898;52.196;4.420;2022-09-09T11:38:29;2.87;;;2.87;;
68864;SDS011;55898;52.196;4.420;2022-09-09T11:41:16;2.55;;;2.55;;
68864;SDS011;55898;52.196;4.420;2022-09-09T11:43:51;2.58;;;2.58;;
68864;SDS011;55898;52.196;4.420;2022-09-09T11:46:22;2.42;;;2.42;;
68864;SDS011;55898;52.196;4.420;2022-09-09T11:49:01;2.42;;;2.42;;
68864;SDS011;55898;52.196;4.420;2022-09-09T11:51:29;2.33;;;2.33;;
68864;SDS011;55898;52.196;4.420;2022-09-09T11:54:01;2.12;;;2.12;;
68864;SDS011;55898;52.196;4.420;2022-09-09T11:56:47;2.32;;;2.32;;
68864;SDS011;55898;52.196;4.420;2022-09-09T11:59:19;2.11;;;2.11;;
68864;SDS011;55898;52.196;4.420;2022-09-09T12:01:50;2.56;;;2.56;;
68864;SDS011;55898;52.196;4.420;2022-09-09T12:09:21;2.56;;;2.56;;
68864;SDS011;55898;52.196;4.420;2022-09-09T12:11:49;2.41;;;2.41;;
68864;SDS011;55898;52.196;4.420;2022-09-09T12:17:09;2.59;;;2.59;;
68864;SDS011;55898;52.196;4.420;2022-09-09T12:20:06;2.84;;;2.84;;
68864;SDS011;55898;52.196;4.420;2022-09-09T12:22:43;2.86;;;2.86;;
68864;SDS011;55898;52.196;4.420;2022-09-09T12:33:44;2.33;;;2.33;;
68864;SDS011;55898;52.196;4.420;2022-09-09T12:36:24;2.40;;;2.40;;
68864;SDS011;55898;52.196;4.420;2022-09-09T12:38:55;2.29;;;2.29;;
68864;SDS011;55898;52.196;4.420;2022-09-09T12:41:35;2.11;;;2.11;;
68864;SDS011;55898;52.196;4.420;2022-09-09T12:44:05;1.99;;;1.99;;
68864;SDS011;55898;52.196;4.420;2022-09-09T12:49:03;1.95;;;1.95;;
68864;SDS011;55898;52.196;4.420;2022-09-09T12:51:30;2.20;;;2.20;;
68864;SDS011;55898;52.196;4.420;2022-09-09T12:53:58;2.09;;;2.09;;
68864;SDS011;55898;52.196;4.420;2022-09-09T12:56:26;2.03;;;2.03;;
68864;SDS011;55898;52.196;4.420;2022-09-09T12:58:56;2.02;;;2.02;;
68864;SDS011;55898;52.196;4.420;2022-09-09T13:03:53;1.81;;;1.81;;
68864;SDS011;55898;52.196;4.420;2022-09-09T13:06:21;1.89;;;1.89;;
68864;SDS011;55898;52.196;4.420;2022-09-09T13:08:49;1.83;;;1.83;;
68864;SDS011;55898;52.196;4.420;2022-09-09T13:11:21;1.61;;;1.61;;
68864;SDS011;55898;52.196;4.420;2022-09-09T13:13:54;1.81;;;1.81;;
68864;SDS011;55898;52.196;4.420;2022-09-09T13:16:23;2.06;;;2.06;;
68864;SDS011;55898;52.196;4.420;2022-09-09T13:18:57;1.90;;;1.90;;
68864;SDS011;55898;52.196;4.420;2022-09-09T13:21:35;1.96;;;1.96;;
68864;SDS011;55898;52.196;4.420;2022-09-09T13:24:03;1.94;;;1.94;;
68864;SDS011;55898;52.196;4.420;2022-09-09T13:26:33;1.79;;;1.79;;
68864;SDS011;55898;52.196;4.420;2022-09-09T13:32:15;1.65;;;1.65;;
68864;SDS011;55898;52.196;4.420;2022-09-09T13:34:50;1.54;;;1.54;;
68864;SDS011;55898;52.196;4.420;2022-09-09T13:37:24;1.70;;;1.70;;
68864;SDS011;55898;52.196;4.420;2022-09-09T13:39:57;1.65;;;1.65;;
68864;SDS011;55898;52.196;4.420;2022-09-09T13:42:24;1.73;;;1.73;;
68864;SDS011;55898;52.196;4.420;2022-09-09T13:44:52;1.55;;;1.55;;
68864;SDS011;55898;52.196;4.420;2022-09-09T13:47:22;1.41;;;1.41;;
68864;SDS011;55898;52.196;4.420;2022-09-09T13:49:55;1.42;;;1.42;;
68864;SDS011;55898;52.196;4.420;2022-09-09T13:52:20;1.35;;;1.35;;
68864;SDS011;55898;52.196;4.420;2022-09-09T13:54:51;1.44;;;1.44;;
68864;SDS011;55898;52.196;4.420;2022-09-09T13:57:18;1.30;;;1.30;;
68864;SDS011;55898;52.196;4.420;2022-09-09T13:59:46;1.46;;;1.46;;
68864;SDS011;55898;52.196;4.420;2022-09-09T14:02:13;1.45;;;1.45;;
68864;SDS011;55898;52.196;4.420;2022-09-09T14:04:39;1.39;;;1.39;;
68864;SDS011;55898;52.196;4.420;2022-09-09T14:07:09;1.68;;;1.68;;
68864;SDS011;55898;52.196;4.420;2022-09-09T14:09:37;1.57;;;1.57;;
68864;SDS011;55898;52.196;4.420;2022-09-09T14:12:04;1.26;;;1.26;;
68864;SDS011;55898;52.196;4.420;2022-09-09T14:14:29;1.25;;;1.25;;
68864;SDS011;55898;52.196;4.420;2022-09-09T14:16:55;1.10;;;1.10;;
68864;SDS011;55898;52.196;4.420;2022-09-09T14:19:20;1.32;;;1.28;;
68864;SDS011;55898;52.196;4.420;2022-09-09T14:21:46;1.46;;;1.34;;
68864;SDS011;55898;52.196;4.420;2022-09-09T14:24:11;1.54;;;1.42;;
68864;SDS011;55898;52.196;4.420;2022-09-09T14:26:37;1.47;;;1.35;;
68864;SDS011;55898;52.196;4.420;2022-09-09T14:29:03;1.41;;;1.28;;
68864;SDS011;55898;52.196;4.420;2022-09-09T14:31:28;1.32;;;1.20;;
68864;SDS011;55898;52.196;4.420;2022-09-09T14:33:54;1.36;;;1.25;;
68864;SDS011;55898;52.196;4.420;2022-09-09T14:36:20;1.30;;;1.20;;
68864;SDS011;55898;52.196;4.420;2022-09-09T14:38:45;1.37;;;1.23;;
68864;SDS011;55898;52.196;4.420;2022-09-09T14:41:13;1.74;;;1.53;;
68864;SDS011;55898;52.196;4.420;2022-09-09T14:43:43;1.61;;;1.41;;
68864;SDS011;55898;52.196;4.420;2022-09-09T14:46:13;1.73;;;1.50;;
68864;SDS011;55898;52.196;4.420;2022-09-09T14:48:41;1.96;;;1.73;;
68864;SDS011;55898;52.196;4.420;2022-09-09T14:51:18;1.94;;;1.67;;
68864;SDS011;55898;52.196;4.420;2022-09-09T14:53:47;1.84;;;1.57;;
68864;SDS011;55898;52.196;4.420;2022-09-09T14:56:17;1.89;;;1.63;;
68864;SDS011;55898;52.196;4.420;2022-09-09T14:58:45;1.74;;;1.44;;
68864;SDS011;55898;52.196;4.420;2022-09-09T15:01:12;2.32;;;1.88;;
68864;SDS011;55898;52.196;4.420;2022-09-09T15:03:40;3.19;;;2.49;;
68864;SDS011;55898;52.196;4.420;2022-09-09T15:06:07;3.24;;;2.46;;
68864;SDS011;55898;52.196;4.420;2022-09-09T15:08:37;3.00;;;2.21;;
68864;SDS011;55898;52.196;4.420;2022-09-09T15:11:04;3.17;;;2.31;;
68864;SDS011;55898;52.196;4.420;2022-09-09T15:13:32;3.24;;;2.43;;
68864;SDS011;55898;52.196;4.420;2022-09-09T15:16:03;2.52;;;1.95;;
68864;SDS011;55898;52.196;4.420;2022-09-09T15:18:29;3.20;;;2.47;;
68864;SDS011;55898;52.196;4.420;2022-09-09T15:20:54;2.53;;;2.01;;
68864;SDS011;55898;52.196;4.420;2022-09-09T15:23:20;2.80;;;2.22;;
68864;SDS011;55898;52.196;4.420;2022-09-09T15:25:54;3.08;;;2.40;;
68864;SDS011;55898;52.196;4.420;2022-09-09T15:28:21;2.80;;;2.25;;
68864;SDS011;55898;52.196;4.420;2022-09-09T15:30:50;2.27;;;1.89;;
68864;SDS011;55898;52.196;4.420;2022-09-09T15:33:18;2.35;;;2.02;;
68864;SDS011;55898;52.196;4.420;2022-09-09T15:35:45;2.22;;;1.95;;
68864;SDS011;55898;52.196;4.420;2022-09-09T15:38:11;1.99;;;1.80;;
68864;SDS011;55898;52.196;4.420;2022-09-09T15:40:41;1.64;;;1.51;;
68864;SDS011;55898;52.196;4.420;2022-09-09T15:43:08;1.51;;;1.36;;
68864;SDS011;55898;52.196;4.420;2022-09-09T15:45:34;1.91;;;1.77;;
68864;SDS011;55898;52.196;4.420;2022-09-09T15:48:02;1.80;;;1.80;;
68864;SDS011;55898;52.196;4.420;2022-09-09T15:50:28;1.78;;;1.78;;
68864;SDS011;55898;52.196;4.420;2022-09-09T15:52:56;1.74;;;1.74;;
68864;SDS011;55898;52.196;4.420;2022-09-09T15:55:22;1.56;;;1.56;;
68864;SDS011;55898;52.196;4.420;2022-09-09T15:57:49;1.82;;;1.82;;
68864;SDS011;55898;52.196;4.420;2022-09-09T16:00:17;1.71;;;1.71;;
68864;SDS011;55898;52.196;4.420;2022-09-09T16:02:43;1.58;;;1.58;;
68864;SDS011;55898;52.196;4.420;2022-09-09T16:05:08;1.69;;;1.69;;
68864;SDS011;55898;52.196;4.420;2022-09-09T16:07:34;1.78;;;1.78;;
68864;SDS011;55898;52.196;4.420;2022-09-09T16:10:00;1.95;;;1.95;;
68864;SDS011;55898;52.196;4.420;2022-09-09T16:12:26;2.39;;;2.36;;
68864;SDS011;55898;52.196;4.420;2022-09-09T16:14:52;2.10;;;2.00;;
68864;SDS011;55898;52.196;4.420;2022-09-09T16:17:17;1.97;;;1.97;;
68864;SDS011;55898;52.196;4.420;2022-09-09T16:19:45;1.99;;;1.99;;
68864;SDS011;55898;52.196;4.420;2022-09-09T16:22:11;2.27;;;2.27;;
68864;SDS011;55898;52.196;4.420;2022-09-09T16:24:36;2.36;;;2.36;;
68864;SDS011;55898;52.196;4.420;2022-09-09T16:27:02;2.60;;;2.60;;
68864;SDS011;55898;52.196;4.420;2022-09-09T16:29:27;2.14;;;2.14;;
68864;SDS011;55898;52.196;4.420;2022-09-09T16:31:53;2.28;;;2.28;;
68864;SDS011;55898;52.196;4.420;2022-09-09T16:34:20;2.16;;;2.16;;
68864;SDS011;55898;52.196;4.420;2022-09-09T16:36:47;2.09;;;2.09;;
68864;SDS011;55898;52.196;4.420;2022-09-09T16:39:15;2.14;;;2.14;;
68864;SDS011;55898;52.196;4.420;2022-09-09T16:41:42;2.27;;;2.27;;
68864;SDS011;55898;52.196;4.420;2022-09-09T16:44:10;2.03;;;2.03;;
68864;SDS011;55898;52.196;4.420;2022-09-09T16:46:38;1.85;;;1.85;;
68864;SDS011;55898;52.196;4.420;2022-09-09T16:49:07;1.76;;;1.76;;
68864;SDS011;55898;52.196;4.420;2022-09-09T16:51:53;1.59;;;1.59;;
68864;SDS011;55898;52.196;4.420;2022-09-09T16:54:19;1.56;;;1.53;;
68864;SDS011;55898;52.196;4.420;2022-09-09T16:56:46;1.44;;;1.41;;
68864;SDS011;55898;52.196;4.420;2022-09-09T16:59:13;1.53;;;1.51;;
68864;SDS011;55898;52.196;4.420;2022-09-09T17:01:44;1.55;;;1.47;;
68864;SDS011;55898;52.196;4.420;2022-09-09T17:04:12;1.57;;;1.49;;
68864;SDS011;55898;52.196;4.420;2022-09-09T17:06:45;1.79;;;1.70;;
68864;SDS011;55898;52.196;4.420;2022-09-09T17:09:14;1.63;;;1.61;;
68864;SDS011;55898;52.196;4.420;2022-09-09T17:11:41;1.60;;;1.60;;
68864;SDS011;55898;52.196;4.420;2022-09-09T17:14:08;1.88;;;1.88;;